Time;durP1;ratioP1;P1;durP2;ratioP2;P2;SDS_P1;SDS_P2;PMS_P1;PMS_P2;Temp;Humidity;BMP_temperature;BMP_pressure;BME280_temperature;BME280_humidity;BME280_pressure;Samples;Min_cycle;Max_cycle;Signal;HPM_P1;HPM_P2
2021/10/03 05:57:18;;;;;;;21.48;10.77;;;;;;;10.61;100.00;95360.72;5090263;27;20405;-75
2021/10/03 05:59:46;;;;;;;21.02;10.27;;;;;;;10.80;100.00;95366.28;5089390;28;20051;-75
2021/10/03 06:02:12;;;;;;;;;;;;;;;10.92;100.00;95366.84;5060331;28;20045;-73
2021/10/03 06:04:37;;;;;;;25.92;10.85;;;;;;;10.99;99.68;95367.44;5065501;28;19925;-73
2021/10/03 06:07:03;;;;;;;21.52;11.02;;;;;;;10.99;99.58;95362.16;5084279;22;20102;-74
2021/10/03 06:09:31;;;;;;;22.70;12.45;;;;;;;11.16;100.00;95373.25;5051988;28;20467;-76
2021/10/03 06:11:57;;;;;;;;;;;;;;;11.18;100.00;95375.63;5060528;28;20098;-78
2021/10/03 06:14:24;;;;;;;21.75;11.93;;;;;;;11.21;100.00;95365.38;5062694;28;20012;-78
2021/10/03 06:16:49;;;;;;;19.98;10.82;;;;;;;11.25;99.95;95371.72;5059353;28;20045;-79
2021/10/03 06:19:15;;;;;;;20.63;10.45;;;;;;;11.21;98.35;95365.38;5059617;28;20072;-78
2021/10/03 06:21:41;;;;;;;17.55;9.70;;;;;;;11.26;97.60;95370.66;5058299;28;20068;-78
2021/10/03 06:24:11;;;;;;;21.08;10.93;;;;;;;11.34;97.89;95368.56;5059715;28;20052;-79
2021/10/03 06:26:36;;;;;;;18.77;10.35;;;;;;;11.35;96.58;95367.50;5058820;28;20041;-79
2021/10/03 06:29:03;;;;;;;20.08;10.30;;;;;;;11.47;98.02;95368.06;5058290;28;20056;-77
2021/10/03 06:31:30;;;;;;;19.00;10.55;;;;;;;11.47;96.87;95366.22;5057493;28;20472;-78
2021/10/03 06:33:56;;;;;;;21.48;11.48;;;;;;;11.56;97.44;95367.25;5068402;28;20033;-76
2021/10/03 06:36:21;;;;;;;21.75;12.02;;;;;;;11.48;96.96;95365.16;5072109;28;20049;-78
2021/10/03 06:38:47;;;;;;;20.85;11.20;;;;;;;11.56;96.86;95363.84;5073131;28;20034;-78
2021/10/03 06:41:15;;;;;;;20.05;11.25;;;;;;;11.56;96.87;95363.84;5070882;28;20104;-78
2021/10/03 06:43:41;;;;;;;23.92;12.02;;;;;;;11.64;96.53;95363.34;5065575;28;20045;-78
2021/10/03 06:46:07;;;;;;;23.45;12.80;;;;;;;11.75;96.29;95361.50;5054993;28;20408;-78
2021/10/03 06:48:36;;;;;;;20.48;11.75;;;;;;;11.85;96.54;95363.38;5055146;28;20105;-78
2021/10/03 06:51:02;;;;;;;20.30;11.75;;;;;;;11.86;96.40;95360.47;5055826;28;20033;-77
2021/10/03 06:53:28;;;;;;;20.10;11.82;;;;;;;11.93;96.11;95362.84;5056891;28;20044;-78
2021/10/03 06:55:53;;;;;;;21.27;12.10;;;;;;;12.06;96.24;95363.09;5059888;28;20041;-77
2021/10/03 06:58:19;;;;;;;21.00;13.05;;;;;;;11.94;95.26;95345.97;5056556;28;20514;-79
2021/10/03 07:00:45;;;;;;;22.00;11.95;;;;;;;12.06;95.22;95349.13;5057348;28;20044;-78
2021/10/03 07:03:11;;;;;;;19.33;11.25;;;;;;;12.15;94.31;95355.44;5060090;28;20136;-79
2021/10/03 07:05:38;;;;;;;20.48;11.18;;;;;;;12.38;93.51;95366.47;5065859;28;20037;-76
2021/10/03 07:08:05;;;;;;;18.63;10.68;;;;;;;12.62;92.73;95367.47;5060604;28;20069;-77
2021/10/03 07:10:31;;;;;;;15.57;9.88;;;;;;;12.95;91.23;95370.50;5046424;28;20061;-79
2021/10/03 07:13:00;;;;;;;19.77;11.07;;;;;;;12.96;90.35;95372.88;5045086;28;20045;-79
2021/10/03 07:15:25;;;;;;;18.15;10.40;;;;;;;12.77;90.61;95371.91;5044602;28;20045;-78
2021/10/03 07:17:51;;;;;;;18.27;10.30;;;;;;;12.80;90.76;95372.13;5044615;28;20128;-78
2021/10/03 07:20:17;;;;;;;17.05;10.00;;;;;;;12.95;90.69;95381.06;5043484;28;20033;-79
2021/10/03 07:22:44;;;;;;;17.13;9.57;;;;;;;12.93;90.32;95383.19;5044953;28;20057;-78
2021/10/03 07:25:10;;;;;;;17.38;9.07;;;;;;;13.16;88.73;95381.78;5045836;28;20076;-79
2021/10/03 07:27:35;;;;;;;17.55;9.57;;;;;;;13.17;88.63;95378.84;5046145;28;20046;-79
2021/10/03 07:30:05;;;;;;;19.25;9.35;;;;;;;13.29;88.70;95379.38;5045770;28;20042;-79
2021/10/03 07:32:33;;;;;;;15.95;8.52;;;;;;;13.80;84.64;95394.09;5024355;28;20037;-79
2021/10/03 07:34:59;;;;;;;;;;;;;;;13.35;86.12;95390.69;5034514;28;20045;-79
2021/10/03 07:37:27;;;;;;;14.27;8.43;;;;;;;13.54;85.56;95390.84;5045498;28;19924;-75
2021/10/03 07:39:54;;;;;;;17.05;9.07;;;;;;;13.63;85.59;95389.19;5044582;28;20052;-78
2021/10/03 07:42:20;;;;;;;17.00;8.95;;;;;;;13.85;84.78;95384.28;5046833;28;20068;-78
2021/10/03 07:44:45;;;;;;;16.52;8.95;;;;;;;14.00;83.90;95378.09;5044995;28;20037;-78
2021/10/03 07:47:11;;;;;;;15.15;8.43;;;;;;;14.03;83.18;95374.88;5044712;28;20087;-79
2021/10/03 07:49:38;;;;;;;16.45;7.88;;;;;;;14.24;82.40;95387.91;5054296;28;20021;-77
2021/10/03 07:52:07;;;;;;;15.30;8.47;;;;;;;14.26;80.57;95386.59;5049506;28;20191;-76
2021/10/03 07:54:35;;;;;;;13.55;7.43;;;;;;;14.41;81.24;95383.78;5048328;28;20270;-77
2021/10/03 07:57:05;;;;;;;14.90;7.80;;;;;;;14.59;81.04;95386.84;5051571;28;20061;-78
2021/10/03 07:59:31;;;;;;;15.70;8.10;;;;;;;14.75;79.40;95388.25;5050496;28;20041;-78
2021/10/03 08:01:59;;;;;;;15.25;7.47;;;;;;;14.91;79.04;95384.34;5052952;28;20076;-78
2021/10/03 08:04:27;;;;;;;12.57;7.30;;;;;;;15.01;77.92;95388.72;5051990;28;20048;-78
2021/10/03 08:06:53;;;;;;;16.27;7.82;;;;;;;15.25;77.41;95388.69;5053360;28;20036;-77
2021/10/03 08:09:18;;;;;;;11.63;6.95;;;;;;;15.41;76.94;95379.47;5057100;28;20057;-78
2021/10/03 08:11:44;;;;;;;11.68;5.88;;;;;;;15.41;74.64;95376.03;5057271;28;20049;-78
2021/10/03 08:14:11;;;;;;;12.27;5.78;;;;;;;15.72;72.90;95387.81;5056755;28;20059;-78
2021/10/03 08:16:37;;;;;;;13.18;6.50;;;;;;;15.75;73.15;95381.13;5057416;28;20097;-77
2021/10/03 08:19:05;;;;;;;10.85;5.72;;;;;;;15.82;72.45;95376.28;5056142;28;20033;-77
2021/10/03 08:21:31;;;;;;;11.60;6.22;;;;;;;15.97;72.60;95385.84;5056596;28;20033;-78
2021/10/03 08:24:00;;;;;;;12.88;5.90;;;;;;;15.97;72.50;95386.63;5056382;28;20096;-77
2021/10/03 08:26:26;;;;;;;13.85;5.93;;;;;;;15.81;71.78;95387.94;5056308;28;20041;-79
2021/10/03 08:28:52;;;;;;;12.10;5.30;;;;;;;16.04;71.01;95386.28;5055767;28;20173;-78
2021/10/03 08:31:19;;;;;;;10.88;5.57;;;;;;;15.85;72.45;95388.16;5056457;28;20045;-78
2021/10/03 08:33:45;;;;;;;12.77;5.70;;;;;;;16.15;72.44;95390.34;5056775;28;20030;-78
2021/10/03 08:36:11;;;;;;;11.18;5.88;;;;;;;16.17;72.14;95382.88;5056771;28;20093;-78
2021/10/03 08:38:37;;;;;;;11.00;5.93;;;;;;;15.88;72.30;95372.47;5056480;28;20045;-78
2021/10/03 08:41:03;;;;;;;11.10;5.40;;;;;;;15.83;72.59;95380.50;5056365;28;20084;-78
2021/10/03 08:43:29;;;;;;;11.77;5.78;;;;;;;15.94;72.95;95378.47;5056615;28;20021;-78
2021/10/03 08:45:59;;;;;;;11.30;6.38;;;;;;;15.69;72.41;95374.34;5055108;28;20033;-78
2021/10/03 08:48:27;;;;;;;11.10;5.18;;;;;;;16.12;71.61;95376.84;5049945;28;20247;-78
2021/10/03 08:50:53;;;;;;;12.50;5.90;;;;;;;16.09;71.21;95366.81;5049330;28;20044;-78
2021/10/03 08:53:21;;;;;;;12.88;5.70;;;;;;;16.11;71.03;95362.81;5047775;28;20085;-79
2021/10/03 08:55:46;;;;;;;;;;;;;;;16.20;70.49;95361.06;5046908;28;20045;-79
2021/10/03 08:58:12;;;;;;;11.25;5.20;;;;;;;16.37;70.10;95357.84;5055661;28;19976;-77
2021/10/03 09:00:46;;;;;;;12.38;5.47;;;;;;;16.60;69.22;95363.28;5057134;28;20029;-78
2021/10/03 09:03:13;;;;;;;10.00;5.38;;;;;;;16.71;68.47;95359.38;5057077;28;20025;-76
2021/10/03 09:05:46;;;;;;;11.07;5.70;;;;;;;16.78;68.84;95363.19;5054051;28;20044;-79
2021/10/03 09:08:13;;;;;;;11.10;5.30;;;;;;;16.85;67.68;95359.38;5047113;28;20050;-78
2021/10/03 09:10:53;;;;;;;11.10;4.90;;;;;;;16.98;67.44;95362.03;5047007;28;20046;-80
2021/10/03 09:13:24;;;;;;;10.05;4.75;;;;;;;17.41;65.54;95363.53;5047664;28;20033;-80
2021/10/03 09:16:10;;;;;;;14.07;5.13;;;;;;;17.18;65.94;95362.69;5046190;28;20056;-77
2021/10/03 09:18:39;;;;;;;9.77;4.90;;;;;;;17.21;65.85;95365.53;5046487;28;20061;-78
2021/10/03 09:21:07;;;;;;;10.70;5.40;;;;;;;17.58;65.17;95367.13;5044825;28;20037;-79
2021/10/03 09:23:33;;;;;;;10.25;5.35;;;;;;;17.91;64.63;95366.94;5049395;28;20096;-79
2021/10/03 09:25:59;;;;;;;10.48;5.22;;;;;;;17.91;64.67;95366.16;5046409;28;20056;-79
2021/10/03 09:28:33;;;;;;;9.52;4.75;;;;;;;18.69;61.11;95363.97;5045852;28;20529;-79
2021/10/03 09:31:04;;;;;;;10.23;4.88;;;;;;;18.67;61.11;95374.09;5045754;28;20048;-78
2021/10/03 09:33:49;;;;;;;11.68;5.53;;;;;;;18.40;62.46;95367.06;5050016;28;20137;-79
2021/10/03 09:36:18;;;;;;;10.25;5.00;;;;;;;18.08;62.88;95364.41;5037066;28;20056;-77
2021/10/03 09:38:50;;;;;;;10.20;5.40;;;;;;;18.19;63.70;95367.59;5046083;28;20037;-80
2021/10/03 09:41:20;;;;;;;10.77;5.20;;;;;;;18.17;63.71;95363.66;5046351;28;20075;-77
2021/10/03 09:43:48;;;;;;;10.82;5.85;;;;;;;18.35;63.10;95357.34;5045361;28;20489;-79
2021/10/03 09:46:39;;;;;;;10.23;5.50;;;;;;;18.00;64.12;95357.13;5047146;28;20041;-77
2021/10/03 09:49:06;;;;;;;10.50;5.60;;;;;;;18.55;63.29;95362.13;5053410;28;20099;-79
2021/10/03 09:51:35;;;;;;;10.18;5.30;;;;;;;18.54;62.17;95357.13;5048912;28;20136;-77
2021/10/03 09:54:04;;;;;;;10.60;5.18;;;;;;;18.81;61.44;95356.16;5044841;28;20042;-78
2021/10/03 09:56:32;;;;;;;10.52;5.13;;;;;;;18.84;62.18;95355.56;5046082;28;20521;-79
2021/10/03 09:58:59;;;;;;;11.80;5.57;;;;;;;18.89;61.96;95360.75;5048410;28;20038;-79
2021/10/03 10:01:25;;;;;;;10.93;5.30;;;;;;;19.34;60.84;95349.88;5045864;28;20052;-78
2021/10/03 10:03:51;;;;;;;9.85;4.95;;;;;;;19.84;58.63;95357.44;5042997;28;20049;-77
2021/10/03 10:06:18;;;;;;;10.75;5.38;;;;;;;19.52;58.70;95351.44;5046156;28;20068;-78
2021/10/03 10:08:46;;;;;;;11.90;5.65;;;;;;;19.29;59.84;95353.47;5042791;28;20113;-77
2021/10/03 10:11:13;;;;;;;;;;;;;;;19.14;60.65;95341.34;5050799;28;20042;-76
2021/10/03 10:13:40;;;;;;;10.93;5.10;;;;;;;19.33;60.45;95332.28;5053846;28;19967;-78
2021/10/03 10:16:29;;;;;;;9.57;5.05;;;;;;;19.26;60.38;95332.75;5046251;28;20102;-78
2021/10/03 10:19:32;;;;;;;12.82;4.80;;;;;;;19.11;60.97;95331.31;5045714;28;20044;-79
2021/10/03 10:22:35;;;;;;;9.68;5.10;;;;;;;19.52;60.85;95337.31;4957861;29;20043;-79
2021/10/03 10:25:04;;;;;;;10.18;4.90;;;;;;;19.70;59.73;95340.81;4954990;29;20046;-78
2021/10/03 10:27:58;;;;;;;9.40;4.63;;;;;;;19.61;59.62;95338.13;5026880;28;20061;-76
2021/10/03 10:30:24;;;;;;;12.70;5.05;;;;;;;19.75;59.59;95340.63;5047765;28;20132;-79
2021/10/03 10:33:14;;;;;;;13.05;4.75;;;;;;;20.24;57.73;95335.88;5042648;28;20053;-80
2021/10/03 10:35:41;;;;;;;11.32;6.15;;;;;;;20.21;57.50;95333.81;5046863;28;20057;-80
2021/10/03 10:38:27;;;;;;;14.67;8.33;;;;;;;20.13;58.16;95338.09;5044997;28;20045;-78
2021/10/03 10:40:55;;;;;;;11.75;5.30;;;;;;;20.32;57.73;95337.72;5042377;28;20067;-78
2021/10/03 10:43:39;;;;;;;12.35;4.90;;;;;;;20.38;56.88;95334.56;5045532;28;20033;-78
2021/10/03 10:46:04;;;;;;;10.05;4.60;;;;;;;20.66;56.83;95326.97;5032877;28;20045;-78
2021/10/03 10:48:30;;;;;;;10.20;5.35;;;;;;;20.64;56.62;95331.81;5049097;28;20033;-79
2021/10/03 10:51:16;;;;;;;9.57;4.30;;;;;;;20.39;56.82;95330.00;5059592;28;20048;-77
2021/10/03 10:53:42;;;;;;;9.07;4.05;;;;;;;20.66;56.22;95329.63;5048577;28;20045;-78
2021/10/03 11:36:05;;;;;;;8.40;4.10;;;;;;;21.84;55.58;95315.31;5089640;28;20390;-76
2021/10/03 11:38:30;;;;;;;9.80;4.18;;;;;;;22.05;55.11;95317.97;5070125;28;20041;-76
2021/10/03 11:41:05;;;;;;;8.07;3.90;;;;;;;21.92;55.23;95316.38;5059060;28;20064;-76
2021/10/03 11:43:32;;;;;;;9.77;3.92;;;;;;;21.92;56.11;95313.69;5062238;28;20028;-72
2021/10/03 11:46:05;;;;;;;9.43;3.85;;;;;;;21.65;56.74;95310.47;5063871;28;20041;-75
2021/10/03 11:48:32;;;;;;;7.63;3.90;;;;;;;21.79;57.30;95304.03;5104411;22;20170;-74
2021/10/03 11:50:58;;;;;;;;;;;;;;;21.78;57.40;95305.16;5087972;28;20543;-75
2021/10/03 11:53:33;;;;;;;9.18;4.70;;;;;;;22.09;57.34;95297.44;5088496;28;19921;-74
2021/10/03 11:56:09;;;;;;;9.98;4.55;;;;;;;21.86;57.87;95294.38;5088229;28;20163;-75
2021/10/03 11:58:36;;;;;;;13.27;6.03;;;;;;;22.32;57.10;95294.41;5088096;28;20044;-74
2021/10/03 12:01:02;;;;;;;8.32;3.85;;;;;;;22.27;56.79;95288.13;5088248;28;20488;-75
2021/10/03 12:03:32;;;;;;;8.75;4.53;;;;;;;22.48;56.67;95287.28;5087938;28;20048;-75
2021/10/03 12:06:01;;;;;;;8.93;4.13;;;;;;;22.62;56.01;95287.72;5086906;28;20040;-75
2021/10/03 12:08:37;;;;;;;8.23;4.15;;;;;;;22.92;55.79;95282.16;5087970;28;20040;-75
2021/10/03 12:11:05;;;;;;;9.52;3.88;;;;;;;22.90;55.61;95282.50;5088513;28;20419;-76
2021/10/03 12:13:33;;;;;;;7.88;3.20;;;;;;;23.08;55.28;95277.66;5086651;28;20070;-75
2021/10/03 12:16:13;;;;;;;11.65;4.30;;;;;;;23.03;55.75;95280.56;5091706;28;20047;-75
2021/10/03 12:18:44;;;;;;;8.07;3.80;;;;;;;23.13;55.49;95274.75;5096124;28;20070;-75
2021/10/03 12:21:13;;;;;;;8.13;3.30;;;;;;;23.42;54.63;95275.59;5096483;28;20059;-74
2021/10/03 12:23:55;;;;;;;7.90;3.10;;;;;;;23.52;53.27;95272.44;5086858;28;20050;-73
2021/10/03 12:26:37;;;;;;;8.35;3.45;;;;;;;23.14;55.01;95265.59;5086069;28;20040;-80
2021/10/03 12:29:26;;;;;;;7.20;3.40;;;;;;;23.03;54.79;95264.47;5095375;28;20037;-81
2021/10/03 12:31:58;;;;;;;8.80;3.22;;;;;;;23.17;54.67;95264.91;5098125;28;20063;-84
2021/10/03 12:34:41;;;;;;;10.20;3.42;;;;;;;23.30;54.38;95279.88;5096167;28;20032;-80
2021/10/03 12:37:09;;;;;;;8.32;3.40;;;;;;;23.26;54.82;95267.47;5091877;28;20045;-80
2021/10/03 12:39:38;;;;;;;8.18;3.25;;;;;;;23.20;54.57;95271.53;5093306;28;20530;-81
2021/10/03 12:42:08;;;;;;;9.00;3.50;;;;;;;23.54;54.37;95267.50;5087602;28;20048;-83
2021/10/03 12:44:35;;;;;;;8.00;3.78;;;;;;;23.82;54.00;95272.88;5094773;28;20036;-79
2021/10/03 12:47:02;;;;;;;8.85;3.45;;;;;;;23.70;54.41;95270.25;5082469;28;20104;-80
2021/10/03 12:49:30;;;;;;;8.15;3.10;;;;;;;23.90;54.29;95268.50;5080864;28;20045;-80
2021/10/03 12:51:56;;;;;;;9.00;3.58;;;;;;;23.97;54.47;95266.78;5084236;28;20048;-80
2021/10/03 12:54:21;;;;;;;7.80;3.85;;;;;;;23.85;54.87;95260.69;5079934;28;20050;-81
2021/10/03 12:56:48;;;;;;;9.23;3.97;;;;;;;23.71;55.31;95271.81;5071566;28;20044;-82
2021/10/03 12:59:14;;;;;;;8.20;3.50;;;;;;;23.52;55.76;95259.78;5080083;28;20173;-80
2021/10/03 13:01:40;;;;;;;8.93;3.33;;;;;;;23.43;56.18;95261.06;5080112;28;20075;-79
2021/10/03 13:04:07;;;;;;;10.18;3.47;;;;;;;23.27;57.00;95259.06;5080266;28;20395;-80
2021/10/03 13:06:32;;;;;;;8.85;3.50;;;;;;;22.98;57.25;95256.69;5080283;28;20123;-78
2021/10/03 13:09:00;;;;;;;8.35;3.40;;;;;;;23.09;57.77;95262.38;5077770;28;20080;-78
2021/10/03 13:11:28;;;;;;;9.60;3.58;;;;;;;22.96;57.81;95253.56;5075123;28;20044;-78
2021/10/03 13:13:56;;;;;;;8.82;3.30;;;;;;;22.73;58.58;95258.59;5071096;28;20044;-77
2021/10/03 13:16:23;;;;;;;8.25;3.70;;;;;;;22.62;59.15;95249.44;5071545;28;20047;-78
2021/10/03 13:18:49;;;;;;;;;;;;;;;22.50;59.96;95261.72;5071622;28;20040;-76
2021/10/03 13:21:15;;;;;;;9.73;3.60;;;;;;;22.61;60.36;95263.97;5074014;28;19932;-78
2021/10/03 13:23:40;;;;;;;10.73;3.38;;;;;;;22.48;60.46;95266.59;5074187;28;20036;-78
2021/10/03 13:26:06;;;;;;;8.57;3.67;;;;;;;22.42;60.93;95267.16;5069196;28;20107;-77
2021/10/03 13:28:35;;;;;;;10.05;3.53;;;;;;;22.58;59.98;95265.38;5065731;28;20475;-77
2021/10/03 13:31:05;;;;;;;9.82;3.30;;;;;;;22.70;60.00;95265.38;5071812;28;20044;-78
2021/10/03 13:33:31;;;;;;;8.98;3.60;;;;;;;22.58;60.78;95269.97;5074389;28;20147;-80
2021/10/03 13:35:58;;;;;;;7.50;3.40;;;;;;;22.31;61.37;95263.38;5073514;28;20393;-79
2021/10/03 13:38:24;;;;;;;8.67;3.20;;;;;;;22.37;60.98;95259.34;5071720;28;20068;-77
2021/10/03 13:40:50;;;;;;;9.68;3.50;;;;;;;22.52;60.66;95262.16;5072388;28;20064;-75
2021/10/03 13:43:18;;;;;;;9.80;3.63;;;;;;;22.66;60.27;95258.38;5069498;28;20094;-79
2021/10/03 13:45:44;;;;;;;8.27;3.58;;;;;;;22.75;60.01;95265.16;5076888;28;20034;-80
2021/10/03 13:48:12;;;;;;;10.70;4.25;;;;;;;22.91;60.01;95262.59;5072649;28;20060;-80
2021/10/03 13:50:39;;;;;;;9.10;3.42;;;;;;;22.95;60.02;95257.34;5075723;28;20044;-79
2021/10/03 13:53:04;;;;;;;10.07;3.90;;;;;;;22.72;60.40;95268.53;5077417;28;21158;-82
2021/10/03 13:55:30;;;;;;;7.53;3.50;;;;;;;22.63;60.48;95269.75;5077616;28;20120;-77
2021/10/03 13:57:56;;;;;;;9.15;3.42;;;;;;;22.61;61.07;95267.41;5075354;28;20040;-78
2021/10/03 14:00:24;;;;;;;8.63;3.80;;;;;;;22.60;61.29;95273.09;5078292;28;20033;-79
2021/10/03 14:02:50;;;;;;;8.35;3.20;;;;;;;22.57;61.35;95269.19;5079034;28;20040;-78
2021/10/03 14:05:19;;;;;;;9.10;4.07;;;;;;;22.58;61.46;95262.72;5080896;28;20037;-78
2021/10/03 14:07:45;;;;;;;9.52;3.47;;;;;;;22.43;61.52;95263.38;5082869;28;20090;-79
2021/10/03 14:10:15;;;;;;;9.73;3.33;;;;;;;22.21;62.01;95264.56;5090578;28;20037;-78
2021/10/03 14:12:41;;;;;;;9.30;3.35;;;;;;;22.05;62.66;95268.97;5076270;28;20514;-80
2021/10/03 14:15:09;;;;;;;8.07;3.50;;;;;;;22.00;63.19;95272.66;5076123;28;20044;-78
2021/10/03 14:17:37;;;;;;;;;;;;;;;22.23;63.10;95267.72;5066146;28;20048;-78
2021/10/03 14:20:03;;;;;;;9.10;3.65;;;;;;;22.34;62.04;95273.44;5071174;28;19951;-80
2021/10/03 14:22:30;;;;;;;10.10;4.50;;;;;;;22.49;61.83;95265.53;5069043;28;20059;-79
2021/10/03 14:24:56;;;;;;;12.75;3.85;;;;;;;22.57;61.67;95269.19;5079152;28;20036;-79
2021/10/03 14:27:22;;;;;;;8.52;3.55;;;;;;;22.78;61.26;95267.19;5073248;28;20050;-79
2021/10/03 14:29:48;;;;;;;8.90;3.28;;;;;;;22.56;61.75;95272.22;5077571;28;20059;-79
2021/10/03 14:32:15;;;;;;;8.07;3.10;;;;;;;22.33;62.58;95274.53;5078615;28;20049;-80
2021/10/03 14:34:41;;;;;;;9.25;3.70;;;;;;;22.43;62.30;95274.09;5078134;28;20033;-80
2021/10/03 14:37:07;;;;;;;12.93;4.35;;;;;;;22.52;62.66;95277.44;5079542;28;20055;-81
2021/10/03 14:39:34;;;;;;;11.07;3.97;;;;;;;22.28;63.16;95283.59;5079322;28;20044;-81
2021/10/03 14:42:00;;;;;;;8.45;3.33;;;;;;;22.19;63.22;95286.34;5078600;28;20117;-80
2021/10/03 14:44:25;;;;;;;9.85;4.32;;;;;;;22.25;63.04;95284.22;5078210;28;20458;-81
2021/10/03 14:46:51;;;;;;;10.80;3.88;;;;;;;22.31;63.00;95290.94;5079061;28;20049;-81
2021/10/03 14:49:20;;;;;;;10.80;3.90;;;;;;;22.39;62.37;95282.03;5079468;28;20093;-81
2021/10/03 14:51:48;;;;;;;8.63;4.07;;;;;;;22.46;62.95;95281.47;5079230;28;20032;-82
2021/10/03 14:54:13;;;;;;;7.97;3.47;;;;;;;22.39;62.54;95284.72;5083544;28;20040;-85
2021/10/03 14:56:41;;;;;;;9.15;3.65;;;;;;;22.37;63.54;95291.50;5086096;28;20059;-86
2021/10/03 14:59:06;;;;;;;9.00;3.80;;;;;;;22.26;63.25;95293.84;5083253;28;20106;-80
2021/10/03 15:01:32;;;;;;;11.60;5.00;;;;;;;22.17;63.68;95293.13;5084930;28;20037;-81
2021/10/03 15:03:57;;;;;;;7.72;3.30;;;;;;;22.04;64.12;95299.56;5074985;28;20040;-82
2021/10/03 15:06:23;;;;;;;8.02;3.20;;;;;;;22.20;63.46;95287.91;5083816;28;20096;-80
2021/10/03 15:08:51;;;;;;;9.13;4.15;;;;;;;22.10;63.80;95293.69;5084443;28;20119;-77
2021/10/03 15:11:17;;;;;;;9.50;4.10;;;;;;;22.13;64.81;95298.38;5075493;28;20474;-79
2021/10/03 15:13:46;;;;;;;9.13;3.97;;;;;;;22.09;64.42;95307.38;5072503;28;20051;-75
2021/10/03 15:16:12;;;;;;;8.40;3.63;;;;;;;22.18;63.62;95305.44;5061454;28;20035;-79
2021/10/03 15:18:37;;;;;;;16.40;6.50;;;;;;;22.05;65.57;95309.94;5075672;28;20123;-80
2021/10/03 15:21:03;;;;;;;11.45;4.85;;;;;;;21.97;65.92;95308.91;5080833;28;20091;-78
2021/10/03 15:23:29;;;;;;;11.32;4.38;;;;;;;21.86;65.66;95320.38;5075439;28;20055;-79
2021/10/03 15:25:54;;;;;;;14.25;5.75;;;;;;;21.83;66.15;95318.34;5073875;28;20043;-80
2021/10/03 15:28:22;;;;;;;27.85;9.70;;;;;;;21.79;66.66;95317.41;5077383;28;20048;-79
2021/10/03 15:30:52;;;;;;;12.98;5.28;;;;;;;21.68;67.08;95317.81;5079434;28;20147;-78
2021/10/03 15:33:17;;;;;;;14.30;6.70;;;;;;;21.56;67.28;95323.13;5079509;28;20041;-79
2021/10/03 15:35:46;;;;;;;15.93;7.53;;;;;;;21.52;68.24;95322.22;5079772;28;20072;-79
2021/10/03 15:38:12;;;;;;;17.27;6.78;;;;;;;21.44;67.89;95318.50;5080339;28;20123;-79
2021/10/03 15:40:38;;;;;;;15.88;6.45;;;;;;;21.42;68.88;95317.28;5078427;28;20082;-79
2021/10/03 15:43:03;;;;;;;13.82;5.70;;;;;;;21.31;69.02;95322.22;5078936;28;20052;-80
2021/10/03 15:45:29;;;;;;;11.63;4.47;;;;;;;21.27;69.43;95323.94;5078410;28;20040;-78
2021/10/03 15:47:56;;;;;;;20.48;7.93;;;;;;;21.08;70.89;95326.25;5076908;28;20063;-78
2021/10/03 15:50:22;;;;;;;12.18;5.20;;;;;;;21.00;70.26;95319.09;5077382;28;20040;-78
2021/10/03 15:52:47;;;;;;;10.70;4.50;;;;;;;21.03;70.86;95331.78;5077000;28;20519;-80
2021/10/03 15:55:13;;;;;;;14.60;6.15;;;;;;;20.97;71.09;95333.88;5080167;28;20048;-80
2021/10/03 15:57:39;;;;;;;11.73;5.07;;;;;;;20.98;71.33;95332.75;5080419;28;20051;-78
2021/10/03 16:00:09;;;;;;;13.27;6.00;;;;;;;20.90;71.99;95339.72;5079456;28;20056;-79
2021/10/03 16:02:36;;;;;;;22.98;9.27;;;;;;;20.89;72.06;95337.38;5080478;28;20043;-78
2021/10/03 16:05:07;;;;;;;15.20;5.82;;;;;;;20.86;72.12;95340.69;5079894;28;20045;-80
2021/10/03 16:07:34;;;;;;;15.48;7.40;;;;;;;20.77;72.91;95343.41;5079320;28;20041;-80
2021/10/03 16:10:00;;;;;;;16.70;7.07;;;;;;;20.68;73.81;95350.69;5080411;28;20148;-79
2021/10/03 16:12:28;;;;;;;18.70;6.80;;;;;;;20.64;74.33;95355.09;5078972;28;20105;-79
2021/10/03 16:14:54;;;;;;;16.95;7.20;;;;;;;20.61;74.36;95359.22;5082379;28;20111;-78
2021/10/03 16:17:20;;;;;;;12.27;7.00;;;;;;;20.63;74.70;95359.66;5094263;28;20023;-78
2021/10/03 16:19:46;;;;;;;14.50;7.43;;;;;;;20.55;74.80;95365.03;5094937;28;20092;-78
2021/10/03 16:22:13;;;;;;;12.65;7.35;;;;;;;20.56;74.99;95370.06;5097667;28;20039;-78
2021/10/03 16:24:38;;;;;;;15.73;8.55;;;;;;;20.53;75.58;95373.34;5098058;28;20080;-78
2021/10/03 16:27:04;;;;;;;14.00;8.02;;;;;;;20.54;75.89;95368.81;5096223;28;20032;-78
2021/10/03 16:29:30;;;;;;;15.70;8.00;;;;;;;20.42;76.40;95372.09;5096784;28;20033;-79
2021/10/03 16:31:55;;;;;;;13.07;7.47;;;;;;;20.26;77.46;95384.41;5088698;28;20108;-79
2021/10/03 16:34:21;;;;;;;17.95;9.10;;;;;;;20.29;77.44;95386.44;5084290;28;20052;-80
2021/10/03 16:36:47;;;;;;;18.95;11.90;;;;;;;20.14;77.81;95387.72;5083252;28;20054;-78
2021/10/03 16:39:17;;;;;;;16.10;9.52;;;;;;;20.15;77.75;95383.94;5082968;28;20045;-79
2021/10/03 16:41:42;;;;;;;13.00;6.93;;;;;;;20.14;77.43;95390.38;5084942;28;20037;-79
2021/10/03 16:44:08;;;;;;;19.95;9.00;;;;;;;20.01;77.97;95400.13;5086250;28;20114;-78
2021/10/03 16:46:34;;;;;;;16.77;7.60;;;;;;;19.87;78.71;95399.53;5081834;28;20088;-77
2021/10/03 16:49:00;;;;;;;15.00;7.40;;;;;;;19.76;79.23;95400.94;5080551;28;20133;-79
2021/10/03 16:51:28;;;;;;;15.38;8.45;;;;;;;19.77;79.35;95410.50;5081128;28;20520;-80
2021/10/03 16:53:56;;;;;;;16.63;10.18;;;;;;;19.93;78.41;95408.94;5080331;28;20127;-78
2021/10/03 16:56:23;;;;;;;15.60;8.73;;;;;;;19.74;79.26;95419.13;5082435;28;20039;-78
2021/10/03 16:58:49;;;;;;;12.57;6.55;;;;;;;19.77;77.54;95423.84;5085504;28;20132;-81
2021/10/03 17:01:15;;;;;;;17.48;6.28;;;;;;;19.78;77.68;95433.41;5091719;28;20037;-80
2021/10/03 17:03:40;;;;;;;12.27;6.30;;;;;;;19.67;77.94;95435.59;5086544;28;20037;-80
2021/10/03 17:06:06;;;;;;;11.05;5.53;;;;;;;19.43;77.42;95444.00;5078862;28;20037;-80
2021/10/03 17:08:32;;;;;;;9.55;4.57;;;;;;;19.51;74.59;95435.22;5080775;28;20036;-80
2021/10/03 17:11:00;;;;;;;12.20;4.35;;;;;;;19.55;73.34;95440.72;5083723;28;20393;-81
2021/10/03 17:13:27;;;;;;;10.98;5.20;;;;;;;19.58;73.58;95445.44;5088075;28;20071;-77
2021/10/03 17:15:53;;;;;;;10.40;4.63;;;;;;;19.60;73.29;95452.06;5075764;28;20060;-77
2021/10/03 17:18:18;;;;;;;13.10;6.15;;;;;;;19.50;74.42;95471.00;5075333;28;20037;-78
2021/10/03 17:20:44;;;;;;;15.45;8.00;;;;;;;19.43;74.89;95468.00;5078397;28;20048;-77
2021/10/03 17:23:12;;;;;;;17.58;11.48;;;;;;;19.41;75.04;95475.53;5078326;28;20040;-77
2021/10/03 17:25:38;;;;;;;16.25;11.52;;;;;;;19.37;75.10;95479.91;5078783;28;20051;-78
2021/10/03 17:28:04;;;;;;;12.57;7.28;;;;;;;19.28;75.37;95490.56;5076887;28;20480;-77
2021/10/03 17:30:34;;;;;;;12.43;5.97;;;;;;;19.25;75.66;95495.69;5077382;28;20053;-78
2021/10/03 17:33:00;;;;;;;12.55;6.10;;;;;;;19.26;75.75;95495.38;5076689;28;20059;-77
2021/10/03 17:35:26;;;;;;;13.85;6.05;;;;;;;19.18;74.51;95500.69;5073927;28;20412;-77
2021/10/03 17:37:51;;;;;;;11.27;5.35;;;;;;;19.11;74.60;95509.94;5074894;28;20055;-77
2021/10/03 17:40:19;;;;;;;17.60;6.43;;;;;;;19.11;73.94;95511.81;5076552;28;20546;-77
2021/10/03 17:42:45;;;;;;;10.05;4.32;;;;;;;19.18;70.52;95508.69;5075480;28;20040;-78
2021/10/03 17:45:13;;;;;;;10.20;4.68;;;;;;;19.18;70.10;95511.38;5075378;28;20040;-78
2021/10/03 17:47:43;;;;;;;10.55;4.10;;;;;;;19.12;70.09;95524.81;5089565;22;20055;-76
2021/10/03 17:50:10;;;;;;;8.75;3.22;;;;;;;19.35;65.24;95528.22;5058296;28;20345;-76
2021/10/03 17:52:37;;;;;;;10.32;4.53;;;;;;;19.58;64.78;95536.13;5057138;28;20132;-75
2021/10/03 17:55:04;;;;;;;10.68;4.25;;;;;;;19.56;67.24;95546.34;5056649;28;20029;-76
2021/10/03 17:57:29;;;;;;;17.73;8.43;;;;;;;19.39;65.97;95547.06;5057073;28;20052;-76
2021/10/03 17:59:55;;;;;;;7.85;2.80;;;;;;;19.30;64.50;95543.56;5056253;28;20457;-75
2021/10/03 18:02:21;;;;;;;11.27;4.47;;;;;;;19.32;64.90;95549.41;5059654;28;20043;-75
2021/10/03 18:04:50;;;;;;;10.55;3.45;;;;;;;19.24;64.98;95572.25;5039196;28;20618;-75
2021/10/03 18:07:16;;;;;;;11.48;3.40;;;;;;;19.23;64.82;95584.00;5057095;28;20119;-74
2021/10/03 18:09:42;;;;;;;9.45;3.10;;;;;;;19.10;65.02;95592.84;5039071;28;20116;-75